Time;durP1;ratioP1;P1;durP2;ratioP2;P2;SDS_P1;SDS_P2;PMS_P1;PMS_P2;Temp;Humidity;BMP_temperature;BMP_pressure;BME280_temperature;BME280_humidity;BME280_pressure;Samples;Min_cycle;Max_cycle;Signal;HPM_P1;HPM_P2
2023/02/09 00:02:10;;;;;;;;;;;;;;;;;;5074357;28;19915;-54
2023/02/09 00:04:36;;;;;;;;;;;;;;;;;;5075858;28;19965;-53
2023/02/09 00:07:02;;;;;;;;;;;;;;;;;;5076931;28;19917;-55
2023/02/09 00:09:28;;;;;;;;;;;;;;;;;;5076229;28;20266;-54
2023/02/09 00:14:38;;;;;;;;;;;;;;;;;;5076839;28;19935;-54
2023/02/09 00:17:04;;;;;;;;;;;;;;;;;;5077009;28;20388;-55
2023/02/09 00:19:30;;;;;;;;;;;;;;;;;;5069646;28;19963;-53
2023/02/09 00:21:56;;;;;;;;;;;;;;;;;;5057195;28;19913;-55
2023/02/09 00:24:22;;;;;;;;;;;;;;;;;;5058252;28;19912;-54
2023/02/09 00:26:48;;;;;;;;;;;;;;;;;;5056881;28;20054;-52
2023/02/09 00:29:14;;;;;;;;;;;;;;;;;;5056752;28;20337;-52
2023/02/09 00:31:39;;;;;;;;;;;;;;;;;;5056652;28;20426;-52
2023/02/09 00:34:05;;;;;;;;;;;;;;;;;;5056612;28;19909;-52
2023/02/09 00:36:31;;;;;;;;;;;;;;;;;;5057842;28;19965;-54
2023/02/09 00:38:57;;;;;;;;;;;;;;;;;;5056774;28;19917;-52
2023/02/09 00:42:09;;;;;;;;;;;;;;;;;;5057915;28;19917;-54
2023/02/09 00:44:09;;;;;;;;;;;;;;;;;;5065411;28;19912;-53
2023/02/09 00:46:35;;;;;;;;;;;;;;;;;;5058547;28;19913;-54
2023/02/09 00:49:01;;;;;;;;;;;;;;;;;;5076378;28;19924;-52
2023/02/09 00:51:27;;;;;;;;;;;;;;;;;;5076432;28;19919;-52
2023/02/09 00:53:53;;;;;;;;;;;;;;;;;;5076323;28;19912;-55
2023/02/09 00:56:19;;;;;;;;;;;;;;;;;;5076286;28;19912;-53
2023/02/09 00:58:45;;;;;;;;;;;;;;;;;;5075229;28;19912;-54
2023/02/09 01:01:14;;;;;;;;;;;;;;;;;;5057953;28;19924;-51
2023/02/09 01:03:40;;;;;;;;;;;;;;;;;;5076658;28;19909;-54
2023/02/09 01:06:06;;;;;;;;;;;;;;;;;;5075695;28;19965;-53
2023/02/09 01:08:32;;;;;;;;;;;;;;;;;;5075942;28;19970;-53
2023/02/09 01:10:58;;;;;;;;;;;;;;;;;;5076072;28;19912;-54
2023/02/09 01:13:23;;;;;;;;;;;;;;;;;;5076172;28;19916;-56
2023/02/09 01:15:49;;;;;;;;;;;;;;;;;;5075992;28;19958;-53
2023/02/09 01:18:15;;;;;;;;;;;;;;;;;;5075829;28;19912;-53
2023/02/09 01:20:41;;;;;;;;;;;;;;;;;;5075184;28;19928;-54
2023/02/09 01:23:07;;;;;;;;;;;;;;;;;;5075654;28;19912;-56
2023/02/09 01:25:33;;;;;;;;;;;;;;;;;;5057393;28;20381;-53
2023/02/09 01:27:59;;;;;;;;;;;;;;;;;;5075350;28;19919;-55
2023/02/09 01:30:25;;;;;;;;;;;;;;;;;;5075356;28;19912;-55
2023/02/09 01:32:51;;;;;;;;;;;;;;;;;;5076059;28;20008;-54
2023/02/09 01:35:17;;;;;;;;;;;;;;;;;;5075708;28;19913;-53
2023/02/09 01:37:43;;;;;;;;;;;;;;;;;;5057508;28;19912;-54
2023/02/09 01:40:09;;;;;;;;;;;;;;;;;;5075101;28;19912;-55
2023/02/09 01:42:34;;;;;;;;;;;;;;;;;;5074923;28;20276;-53
2023/02/09 01:45:00;;;;;;;;;;;;;;;;;;5075123;28;19982;-54
2023/02/09 01:47:26;;;;;;;;;;;;;;;;;;5075024;28;19916;-54
2023/02/09 01:49:52;;;;;;;;;;;;;;;;;;5075668;28;20008;-56
2023/02/09 01:52:18;;;;;;;;;;;;;;;;;;5075217;28;19952;-56
2023/02/09 01:54:44;;;;;;;;;;;;;;;;;;5056921;28;19913;-53
2023/02/09 01:57:10;;;;;;;;;;;;;;;;;;5074872;28;20269;-54
2023/02/09 01:59:36;;;;;;;;;;;;;;;;;;5075189;28;19912;-55
2023/02/09 02:02:02;;;;;;;;;;;;;;;;;;5074713;28;19912;-53
2023/02/09 02:04:29;;;;;;;;;;;;;;;;;;5074905;28;19915;-54
2023/02/09 02:06:55;;;;;;;;;;;;;;;;;;5074448;28;19917;-55
2023/02/09 02:09:21;;;;;;;;;;;;;;;;;;5074576;28;19924;-55
2023/02/09 02:11:47;;;;;;;;;;;;;;;;;;5074793;28;19916;-53
2023/02/09 02:14:13;;;;;;;;;;;;;;;;;;5056813;28;19913;-55
2023/02/09 02:16:39;;;;;;;;;;;;;;;;;;5074639;28;19912;-55
2023/02/09 02:19:05;;;;;;;;;;;;;;;;;;5074573;28;19920;-56
2023/02/09 02:21:31;;;;;;;;;;;;;;;;;;5074342;28;19920;-54
2023/02/09 02:23:56;;;;;;;;;;;;;;;;;;5074797;28;20442;-54
2023/02/09 02:26:22;;;;;;;;;;;;;;;;;;5074009;28;20012;-55
2023/02/09 02:28:48;;;;;;;;;;;;;;;;;;5074126;28;19995;-53
2023/02/09 02:31:14;;;;;;;;;;;;;;;;;;5055991;28;20011;-56
2023/02/09 02:33:40;;;;;;;;;;;;;;;;;;5073943;28;20007;-53
2023/02/09 02:36:06;;;;;;;;;;;;;;;;;;5056217;28;19914;-56
2023/02/09 02:38:32;;;;;;;;;;;;;;;;;;5074307;28;19908;-56
2023/02/09 02:40:58;;;;;;;;;;;;;;;;;;5055949;28;19917;-53
2023/02/09 02:43:24;;;;;;;;;;;;;;;;;;5073731;28;20354;-53
2023/02/09 02:45:50;;;;;;;;;;;;;;;;;;5074191;28;19913;-53
2023/02/09 02:48:16;;;;;;;;;;;;;;;;;;5074223;28;19919;-53
2023/02/09 02:50:42;;;;;;;;;;;;;;;;;;5074477;28;19920;-53
2023/02/09 02:53:08;;;;;;;;;;;;;;;;;;5074204;28;20387;-53
2023/02/09 02:55:33;;;;;;;;;;;;;;;;;;5073442;28;19954;-54
2023/02/09 02:57:59;;;;;;;;;;;;;;;;;;5073794;28;19916;-55
2023/02/09 03:00:25;;;;;;;;;;;;;;;;;;5073767;28;20128;-53
2023/02/09 03:02:52;;;;;;;;;;;;;;;;;;5055740;28;19920;-56
2023/02/09 03:05:18;;;;;;;;;;;;;;;;;;5072532;28;19919;-52
2023/02/09 03:07:44;;;;;;;;;;;;;;;;;;5115555;22;19924;-59
2023/02/09 03:10:10;;;;;;;;;;;;;;;;;;5091430;28;20456;-58
2023/02/09 03:12:36;;;;;;;;;;;;;;;;;;5091530;28;20231;-57
2023/02/09 03:15:01;;;;;;;;;;;;;;;;;;5090322;28;20031;-59
2023/02/09 03:17:27;;;;;;;;;;;;;;;;;;5075337;28;19972;-59
2023/02/09 03:19:53;;;;;;;;;;;;;;;;;;5090039;28;19920;-58
2023/02/09 03:22:19;;;;;;;;;;;;;;;;;;5075387;28;19912;-57
2023/02/09 03:24:45;;;;;;;;;;;;;;;;;;5095240;28;20333;-57
2023/02/09 03:27:11;;;;;;;;;;;;;;;;;;5095149;28;19912;-55
2023/02/09 03:29:37;;;;;;;;;;;;;;;;;;5096017;28;19920;-57
2023/02/09 03:32:03;;;;;;;;;;;;;;;;;;5094270;28;19912;-58
2023/02/09 03:34:29;;;;;;;;;;;;;;;;;;5077494;28;19919;-56
2023/02/09 03:36:55;;;;;;;;;;;;;;;;;;5077675;28;19924;-58
2023/02/09 03:39:21;;;;;;;;;;;;;;;;;;5077419;28;19908;-56
2023/02/09 03:41:46;;;;;;;;;;;;;;;;;;5086466;28;20403;-56
2023/02/09 03:44:25;;;;;;;;;;;;;;;;;;5075722;28;19919;-58
2023/02/09 03:46:51;;;;;;;;;;;;;;;;;;5076801;28;20368;-58
2023/02/09 03:49:17;;;;;;;;;;;;;;;;;;5075399;28;19908;-59
2023/02/09 03:51:43;;;;;;;;;;;;;;;;;;5081700;28;19951;-59
2023/02/09 03:54:09;;;;;;;;;;;;;;;;;;5082719;28;20390;-59
2023/02/09 03:56:36;;;;;;;;;;;;;;;;;;5092177;28;20418;-58
2023/02/09 03:59:02;;;;;;;;;;;;;;;;;;5095647;28;20330;-57
2023/02/09 04:01:28;;;;;;;;;;;;;;;;;;5082110;28;19924;-58
2023/02/09 04:03:53;;;;;;;;;;;;;;;;;;5076389;28;19920;-59
2023/02/09 04:06:19;;;;;;;;;;;;;;;;;;5090674;28;19912;-58
2023/02/09 04:08:46;;;;;;;;;;;;;;;;;;5080375;28;19985;-58
2023/02/09 04:11:11;;;;;;;;;;;;;;;;;;5075151;28;19915;-56
2023/02/09 04:13:37;;;;;;;;;;;;;;;;;;5075153;28;19909;-58
2023/02/09 04:16:03;;;;;;;;;;;;;;;;;;5062171;28;19920;-58
2023/02/09 04:18:29;;;;;;;;;;;;;;;;;;5060164;28;20300;-57
2023/02/09 04:20:55;;;;;;;;;;;;;;;;;;5065708;28;19924;-59
2023/02/09 04:23:21;;;;;;;;;;;;;;;;;;5074941;28;20065;-59
2023/02/09 04:25:47;;;;;;;;;;;;;;;;;;5081315;28;19912;-59
2023/02/09 04:28:13;;;;;;;;;;;;;;;;;;5095092;28;19909;-57
2023/02/09 04:30:39;;;;;;;;;;;;;;;;;;5078756;28;20369;-56
2023/02/09 04:33:05;;;;;;;;;;;;;;;;;;5074646;28;19913;-58
2023/02/09 04:35:31;;;;;;;;;;;;;;;;;;5074592;28;19912;-57
2023/02/09 04:37:57;;;;;;;;;;;;;;;;;;5074590;28;19915;-59
2023/02/09 04:40:22;;;;;;;;;;;;;;;;;;5063589;28;19917;-57
2023/02/09 04:42:48;;;;;;;;;;;;;;;;;;5085256;28;19912;-57
2023/02/09 04:45:14;;;;;;;;;;;;;;;;;;5075634;28;20314;-58
2023/02/09 04:47:40;;;;;;;;;;;;;;;;;;5074194;28;20010;-57
2023/02/09 04:50:06;;;;;;;;;;;;;;;;;;5074412;28;20031;-56
2023/02/09 04:52:32;;;;;;;;;;;;;;;;;;5074303;28;20007;-59
2023/02/09 04:54:58;;;;;;;;;;;;;;;;;;5073745;28;20002;-58
2023/02/09 05:00:08;;;;;;;;;;;;;;;;;;5074057;28;20005;-58
2023/02/09 05:02:34;;;;;;;;;;;;;;;;;;5073979;28;19944;-59
2023/02/09 05:05:00;;;;;;;;;;;;;;;;;;5074082;28;19909;-58
2023/02/09 05:07:26;;;;;;;;;;;;;;;;;;5074000;28;19912;-60
2023/02/09 05:09:52;;;;;;;;;;;;;;;;;;5074138;28;19913;-58
2023/02/09 05:12:18;;;;;;;;;;;;;;;;;;5074116;28;19908;-60
2023/02/09 05:14:44;;;;;;;;;;;;;;;;;;5073879;28;19962;-59
2023/02/09 05:17:10;;;;;;;;;;;;;;;;;;5073735;28;19914;-58
2023/02/09 05:19:36;;;;;;;;;;;;;;;;;;5073844;28;19952;-58
2023/02/09 05:22:01;;;;;;;;;;;;;;;;;;5073949;28;19943;-56
2023/02/09 05:24:27;;;;;;;;;;;;;;;;;;5073713;28;19948;-59
2023/02/09 05:26:53;;;;;;;;;;;;;;;;;;5073835;28;20377;-60
2023/02/09 05:29:19;;;;;;;;;;;;;;;;;;5073535;28;20030;-58
2023/02/09 05:31:45;;;;;;;;;;;;;;;;;;5073785;28;19947;-60
2023/02/09 05:34:11;;;;;;;;;;;;;;;;;;5073680;28;20009;-58
2023/02/09 05:36:37;;;;;;;;;;;;;;;;;;5073426;28;19915;-57
2023/02/09 05:39:03;;;;;;;;;;;;;;;;;;5055587;28;19909;-55
2023/02/09 05:44:13;;;;;;;;;;;;;;;;;;5073385;28;19916;-57
2023/02/09 05:46:39;;;;;;;;;;;;;;;;;;5072874;28;19909;-55
2023/02/09 05:49:05;;;;;;;;;;;;;;;;;;5073223;28;19925;-58
2023/02/09 05:51:31;;;;;;;;;;;;;;;;;;5073247;28;19909;-60
2023/02/09 05:53:57;;;;;;;;;;;;;;;;;;5073240;28;19954;-59
2023/02/09 05:56:23;;;;;;;;;;;;;;;;;;5073071;28;19908;-69
2023/02/09 05:59:05;;;;;;;;;;;;;;;;;;5072889;28;20372;-70
2023/02/09 06:01:31;;;;;;;;;;;;;;;;;;5073209;28;19912;-69
2023/02/09 06:03:58;;;;;;;;;;;;;;;;;;5073062;28;19931;-70
2023/02/09 06:06:25;;;;;;;;;;;;;;;;;;5072866;28;19919;-68
2023/02/09 06:08:52;;;;;;;;;;;;;;;;;;5072589;28;19916;-69
2023/02/09 06:11:19;;;;;;;;;;;;;;;;;;5072900;28;19970;-58
2023/02/09 06:13:45;;;;;;;;;;;;;;;;;;5054854;28;19920;-63
2023/02/09 06:16:10;;;;;;;;;;;;;;;;;;5072768;28;19912;-56
2023/02/09 06:18:39;;;;;;;;;;;;;;;;;;5072683;28;20327;-58
2023/02/09 06:21:05;;;;;;;;;;;;;;;;;;5072637;28;19917;-60
2023/02/09 06:23:33;;;;;;;;;;;;;;;;;;5072554;28;20247;-57
2023/02/09 06:26:13;;;;;;;;;;;;;;;;;;5072593;28;20369;-60
2023/02/09 06:28:40;;;;;;;;;;;;;;;;;;5072373;28;19909;-56
2023/02/09 06:31:06;;;;;;;;;;;;;;;;;;5072516;28;19916;-58
2023/02/09 06:33:32;;;;;;;;;;;;;;;;;;5072525;28;19909;-56
2023/02/09 06:35:58;;;;;;;;;;;;;;;;;;5072281;28;19915;-58
2023/02/09 06:38:24;;;;;;;;;;;;;;;;;;5054430;28;19912;-59
2023/02/09 06:40:51;;;;;;;;;;;;;;;;;;5072422;28;20288;-57
2023/02/09 06:43:17;;;;;;;;;;;;;;;;;;5072598;28;19909;-56
2023/02/09 06:45:42;;;;;;;;;;;;;;;;;;5072324;28;19908;-57
2023/02/09 06:48:09;;;;;;;;;;;;;;;;;;5072246;28;19987;-59
2023/02/09 06:50:37;;;;;;;;;;;;;;;;;;5072167;28;19916;-58
2023/02/09 06:53:06;;;;;;;;;;;;;;;;;;5072499;28;20296;-55
2023/02/09 06:55:36;;;;;;;;;;;;;;;;;;5072267;28;19971;-58
2023/02/09 06:58:18;;;;;;;;;;;;;;;;;;5071528;28;19915;-58
2023/02/09 07:00:48;;;;;;;;;;;;;;;;;;5072060;28;20368;-56
2023/02/09 07:03:14;;;;;;;;;;;;;;;;;;5072033;28;20471;-57
2023/02/09 07:05:40;;;;;;;;;;;;;;;;;;5053871;28;19982;-58
2023/02/09 07:08:07;;;;;;;;;;;;;;;;;;5070705;28;20387;-58
2023/02/09 07:10:35;;;;;;;;;;;;;;;;;;5071958;28;19912;-58
2023/02/09 07:13:01;;;;;;;;;;;;;;;;;;5072096;28;19916;-59
2023/02/09 07:15:28;;;;;;;;;;;;;;;;;;5071826;28;19931;-57
2023/02/09 07:17:54;;;;;;;;;;;;;;;;;;5071895;28;19948;-58
2023/02/09 07:20:20;;;;;;;;;;;;;;;;;;5071932;28;20001;-57
2023/02/09 07:22:48;;;;;;;;;;;;;;;;;;5071861;28;19913;-57
2023/02/09 07:25:16;;;;;;;;;;;;;;;;;;5071958;28;19966;-58
2023/02/09 07:28:01;;;;;;;;;;;;;;;;;;5071673;28;20019;-56
2023/02/09 07:30:28;;;;;;;;;;;;;;;;;;5072171;28;19909;-54
2023/02/09 07:32:54;;;;;;;;;;;;;;;;;;5071868;28;20138;-55
2023/02/09 07:35:20;;;;;;;;;;;;;;;;;;5071831;28;19944;-55
2023/02/09 07:37:48;;;;;;;;;;;;;;;;;;5071847;28;20330;-57
2023/02/09 07:40:34;;;;;;;;;;;;;;;;;;5071655;28;19912;-57
2023/02/09 07:43:04;;;;;;;;;;;;;;;;;;5071691;28;19909;-55
2023/02/09 07:45:30;;;;;;;;;;;;;;;;;;5053660;28;19916;-56
2023/02/09 07:48:04;;;;;;;;;;;;;;;;;;5071587;28;19908;-54
2023/02/09 07:50:30;;;;;;;;;;;;;;;;;;5071777;28;20011;-54
2023/02/09 07:52:57;;;;;;;;;;;;;;;;;;5072208;28;19940;-57
2023/02/09 07:55:23;;;;;;;;;;;;;;;;;;5071669;28;20174;-58
2023/02/09 07:57:49;;;;;;;;;;;;;;;;;;5071681;28;19909;-57
2023/02/09 08:00:16;;;;;;;;;;;;;;;;;;5071628;28;19913;-58
2023/02/09 08:02:51;;;;;;;;;;;;;;;;;;5071706;28;19908;-59
2023/02/09 08:05:20;;;;;;;;;;;;;;;;;;5071418;28;19959;-58
2023/02/09 08:07:47;;;;;;;;;;;;;;;;;;5071704;28;20369;-58
2023/02/09 08:10:16;;;;;;;;;;;;;;;;;;5075184;28;20377;-59
2023/02/09 08:13:01;;;;;;;;;;;;;;;;;;5075197;28;19908;-57
2023/02/09 08:15:29;;;;;;;;;;;;;;;;;;5075141;28;19947;-59
2023/02/09 08:17:56;;;;;;;;;;;;;;;;;;5074921;28;19956;-56
2023/02/09 08:20:22;;;;;;;;;;;;;;;;;;5074899;28;19955;-55
2023/02/09 08:22:48;;;;;;;;;;;;;;;;;;5075065;28;19960;-55
2023/02/09 08:25:14;;;;;;;;;;;;;;;;;;5074840;28;19915;-59
2023/02/09 08:28:00;;;;;;;;;;;;;;;;;;5074738;28;20002;-58
2023/02/09 08:30:26;;;;;;;;;;;;;;;;;;5074776;28;19909;-58
2023/02/09 08:32:52;;;;;;;;;;;;;;;;;;5074870;28;19920;-58
2023/02/09 08:35:18;;;;;;;;;;;;;;;;;;5074655;28;19912;-58
2023/02/09 08:37:45;;;;;;;;;;;;;;;;;;5074714;28;19920;-57
2023/02/09 08:40:11;;;;;;;;;;;;;;;;;;5074494;28;19912;-56
2023/02/09 08:42:36;;;;;;;;;;;;;;;;;;5074568;28;19908;-55
2023/02/09 08:45:03;;;;;;;;;;;;;;;;;;5074606;28;19912;-58
2023/02/09 08:47:29;;;;;;;;;;;;;;;;;;5074769;28;20064;-56
2023/02/09 08:49:58;;;;;;;;;;;;;;;;;;5074522;28;19912;-55
2023/02/09 08:52:24;;;;;;;;;;;;;;;;;;5074425;28;19992;-58
2023/02/09 08:54:50;;;;;;;;;;;;;;;;;;5074468;28;19908;-55
2023/02/09 08:57:17;;;;;;;;;;;;;;;;;;5074300;28;19908;-57
2023/02/09 08:59:44;;;;;;;;;;;;;;;;;;5074175;28;20296;-59
2023/02/09 09:02:11;;;;;;;;;;;;;;;;;;5074390;28;19908;-59
2023/02/09 09:04:40;;;;;;;;;;;;;;;;;;5074376;28;19962;-58
2023/02/09 09:07:06;;;;;;;;;;;;;;;;;;5074526;28;19908;-58
2023/02/09 09:09:32;;;;;;;;;;;;;;;;;;5088218;22;19954;-57
2023/02/09 09:11:58;;;;;;;;;;;;;;;;;;5073994;28;20000;-59
2023/02/09 09:14:25;;;;;;;;;;;;;;;;;;5074580;28;19919;-59
2023/02/09 09:16:52;;;;;;;;;;;;;;;;;;5074282;28;19917;-56
2023/02/09 09:19:19;;;;;;;;;;;;;;;;;;5089080;28;19908;-59
2023/02/09 09:21:48;;;;;;;;;;;;;;;;;;5093419;28;19922;-57
2023/02/09 09:24:17;;;;;;;;;;;;;;;;;;5094081;28;19912;-57
2023/02/09 09:26:43;;;;;;;;;;;;;;;;;;5094040;28;19909;-59
2023/02/09 09:29:10;;;;;;;;;;;;;;;;;;5093736;28;19908;-55
2023/02/09 09:31:38;;;;;;;;;;;;;;;;;;5094201;28;19916;-55
2023/02/09 09:34:03;;;;;;;;;;;;;;;;;;5093850;28;19944;-56
2023/02/09 09:36:30;;;;;;;;;;;;;;;;;;5094183;28;19915;-58
2023/02/09 09:38:58;;;;;;;;;;;;;;;;;;5093791;28;19912;-55
2023/02/09 09:41:33;;;;;;;;;;;;;;;;;;5093223;28;19912;-59
2023/02/09 09:44:00;;;;;;;;;;;;;;;;;;5093809;28;20000;-58
2023/02/09 09:46:35;;;;;;;;;;;;;;;;;;5093809;28;19944;-57
2023/02/09 09:49:01;;;;;;;;;;;;;;;;;;5093576;28;20395;-56
2023/02/09 09:51:27;;;;;;;;;;;;;;;;;;5093644;28;19943;-64
2023/02/09 09:53:55;;;;;;;;;;;;;;;;;;5093572;28;20058;-64
2023/02/09 09:56:24;;;;;;;;;;;;;;;;;;5092893;28;20045;-64
2023/02/09 09:58:51;;;;;;;;;;;;;;;;;;5093364;28;20368;-64
2023/02/09 10:01:20;;;;;;;;;;;;;;;;;;5093474;28;19919;-64
2023/02/09 10:03:48;;;;;;;;;;;;;;;;;;5093650;28;19914;-64
2023/02/09 10:06:15;;;;;;;;;;;;;;;;;;5092879;28;19915;-64
2023/02/09 10:08:43;;;;;;;;;;;;;;;;;;5093342;28;19908;-64
2023/02/09 10:11:09;;;;;;;;;;;;;;;;;;5093645;28;20011;-64
2023/02/09 10:13:36;;;;;;;;;;;;;;;;;;5093286;28;19969;-64
2023/02/09 10:16:05;;;;;;;;;;;;;;;;;;5093201;28;20373;-63
2023/02/09 10:18:51;;;;;;;;;;;;;;;;;;5092912;28;20345;-64
2023/02/09 10:21:26;;;;;;;;;;;;;;;;;;5092563;28;19913;-64
2023/02/09 10:23:52;;;;;;;;;;;;;;;;;;5091718;28;19908;-63
2023/02/09 10:26:20;;;;;;;;;;;;;;;;;;5093002;28;19914;-63
2023/02/09 10:28:45;;;;;;;;;;;;;;;;;;5092982;28;19918;-64
2023/02/09 10:31:11;;;;;;;;;;;;;;;;;;5092753;28;19954;-64
2023/02/09 10:33:37;;;;;;;;;;;;;;;;;;5092897;28;19908;-64
2023/02/09 10:36:05;;;;;;;;;;;;;;;;;;5092714;28;20322;-64
2023/02/09 10:38:31;;;;;;;;;;;;;;;;;;5092614;28;19908;-64
2023/02/09 10:40:59;;;;;;;;;;;;;;;;;;5092652;28;20261;-64
2023/02/09 10:43:25;;;;;;;;;;;;;;;;;;5092756;28;19915;-64
2023/02/09 10:45:51;;;;;;;;;;;;;;;;;;5092513;28;20360;-64
2023/02/09 10:48:18;;;;;;;;;;;;;;;;;;5092795;28;19966;-64
2023/02/09 10:50:44;;;;;;;;;;;;;;;;;;5092622;28;20384;-64
2023/02/09 10:53:12;;;;;;;;;;;;;;;;;;5092443;28;19915;-64
2023/02/09 10:55:39;;;;;;;;;;;;;;;;;;5092529;28;20017;-64
2023/02/09 10:58:05;;;;;;;;;;;;;;;;;;5092557;28;20284;-64
2023/02/09 11:00:35;;;;;;;;;;;;;;;;;;5092376;28;19912;-64
2023/02/09 11:03:01;;;;;;;;;;;;;;;;;;5092524;28;19908;-64
2023/02/09 11:05:27;;;;;;;;;;;;;;;;;;5092536;28;19944;-64
2023/02/09 11:08:01;;;;;;;;;;;;;;;;;;5092335;28;19915;-64
2023/02/09 11:10:27;;;;;;;;;;;;;;;;;;5092305;28;19998;-64
2023/02/09 11:12:53;;;;;;;;;;;;;;;;;;5092294;28;19912;-64
2023/02/09 11:15:19;;;;;;;;;;;;;;;;;;5092239;28;20003;-63
2023/02/09 11:17:45;;;;;;;;;;;;;;;;;;5092137;28;19998;-64
2023/02/09 11:20:11;;;;;;;;;;;;;;;;;;5091745;28;19912;-64
2023/02/09 11:22:37;;;;;;;;;;;;;;;;;;5071866;28;19970;-64
2023/02/09 11:25:04;;;;;;;;;;;;;;;;;;5071947;28;20277;-64
2023/02/09 11:27:34;;;;;;;;;;;;;;;;;;5087712;28;20297;-64
2023/02/09 11:30:01;;;;;;;;;;;;;;;;;;5090411;28;19912;-64
2023/02/09 11:32:28;;;;;;;;;;;;;;;;;;5084900;28;19920;-62
2023/02/09 11:34:53;;;;;;;;;;;;;;;;;;5070718;28;19912;-64
2023/02/09 11:37:24;;;;;;;;;;;;;;;;;;5072077;28;19999;-63
2023/02/09 11:39:52;;;;;;;;;;;;;;;;;;5087407;28;19919;-62
2023/02/09 11:42:44;;;;;;;;;;;;;;;;;;5082046;28;20003;-63
2023/02/09 11:45:11;;;;;;;;;;;;;;;;;;5076270;28;19919;-63
2023/02/09 11:47:38;;;;;;;;;;;;;;;;;;5075892;28;19908;-63
2023/02/09 11:50:04;;;;;;;;;;;;;;;;;;5084071;28;19935;-63
2023/02/09 11:52:30;;;;;;;;;;;;;;;;;;5075465;28;19916;-63
2023/02/09 11:54:56;;;;;;;;;;;;;;;;;;5075408;28;19908;-63
2023/02/09 11:57:22;;;;;;;;;;;;;;;;;;5078772;28;19913;-64
2023/02/09 11:59:53;;;;;;;;;;;;;;;;;;5086853;28;20007;-63
2023/02/09 12:02:19;;;;;;;;;;;;;;;;;;5092684;28;19912;-63
2023/02/09 12:04:47;;;;;;;;;;;;;;;;;;5086875;28;19995;-63
2023/02/09 12:07:14;;;;;;;;;;;;;;;;;;5074967;28;20372;-63
2023/02/09 12:09:40;;;;;;;;;;;;;;;;;;5074799;28;19924;-63
2023/02/09 12:12:06;;;;;;;;;;;;;;;;;;5073938;28;20430;-63
2023/02/09 12:14:32;;;;;;;;;;;;;;;;;;5092134;28;19912;-63
2023/02/09 12:17:00;;;;;;;;;;;;;;;;;;5090699;28;19920;-63
2023/02/09 12:19:42;;;;;;;;;;;;;;;;;;5089268;28;20365;-63
2023/02/09 12:22:12;;;;;;;;;;;;;;;;;;5087631;28;19919;-63
2023/02/09 12:24:39;;;;;;;;;;;;;;;;;;5095527;28;19908;-63
2023/02/09 12:27:21;;;;;;;;;;;;;;;;;;5092924;28;19948;-63
2023/02/09 12:29:47;;;;;;;;;;;;;;;;;;5074881;28;19912;-63
2023/02/09 12:32:13;;;;;;;;;;;;;;;;;;5093017;28;19908;-63
2023/02/09 12:34:39;;;;;;;;;;;;;;;;;;5081700;28;19908;-63
2023/02/09 12:37:05;;;;;;;;;;;;;;;;;;5076869;28;20057;-63
2023/02/09 12:39:31;;;;;;;;;;;;;;;;;;5093628;28;20364;-63
2023/02/09 12:42:17;;;;;;;;;;;;;;;;;;5085148;28;19913;-62
2023/02/09 12:45:03;;;;;;;;;;;;;;;;;;5074649;28;19955;-65
2023/02/09 12:47:37;;;;;;;;;;;;;;;;;;5076062;28;20019;-66
2023/02/09 12:50:04;;;;;;;;;;;;;;;;;;5084740;28;20428;-65
2023/02/09 12:52:40;;;;;;;;;;;;;;;;;;5093533;28;20329;-66
2023/02/09 12:55:08;;;;;;;;;;;;;;;;;;5091948;28;19994;-66
2023/02/09 12:57:41;;;;;;;;;;;;;;;;;;5094610;28;19944;-66
2023/02/09 13:00:44;;;;;;;;;;;;;;;;;;5075606;28;20831;-65
2023/02/09 13:03:10;;;;;;;;;;;;;;;;;;5074298;28;19950;-64
2023/02/09 13:05:37;;;;;;;;;;;;;;;;;;5072849;28;20309;-65
2023/02/09 13:08:23;;;;;;;;;;;;;;;;;;5075206;28;19908;-63
2023/02/09 13:11:11;;;;;;;;;;;;;;;;;;5087022;28;19965;-64
2023/02/09 13:13:57;;;;;;;;;;;;;;;;;;5094244;28;20362;-63
2023/02/09 13:16:42;;;;;;;;;;;;;;;;;;5076623;28;19918;-63
2023/02/09 13:19:30;;;;;;;;;;;;;;;;;;5083558;28;20011;-63
2023/02/09 13:22:16;;;;;;;;;;;;;;;;;;5074709;28;19970;-64
2023/02/09 13:24:51;;;;;;;;;;;;;;;;;;5074131;28;19908;-63
2023/02/09 13:27:21;;;;;;;;;;;;;;;;;;5074055;28;20000;-63
2023/02/09 13:30:08;;;;;;;;;;;;;;;;;;5073768;28;19919;-63
2023/02/09 13:32:35;;;;;;;;;;;;;;;;;;5072662;28;19908;-63
2023/02/09 13:35:21;;;;;;;;;;;;;;;;;;5073607;28;20448;-64
2023/02/09 13:38:10;;;;;;;;;;;;;;;;;;5075788;28;19912;-63
2023/02/09 13:40:57;;;;;;;;;;;;;;;;;;5084687;28;19919;-63
2023/02/09 13:43:25;;;;;;;;;;;;;;;;;;5088056;28;19959;-63
2023/02/09 13:46:11;;;;;;;;;;;;;;;;;;5083502;28;20040;-62
2023/02/09 13:48:37;;;;;;;;;;;;;;;;;;5081323;28;19947;-63
2023/02/09 13:51:24;;;;;;;;;;;;;;;;;;5093617;28;19919;-63
2023/02/09 13:53:53;;;;;;;;;;;;;;;;;;5093841;28;19908;-63
2023/02/09 13:56:20;;;;;;;;;;;;;;;;;;5082602;28;19908;-64
2023/02/09 13:59:06;;;;;;;;;;;;;;;;;;5072676;28;19932;-64
2023/02/09 14:01:53;;;;;;;;;;;;;;;;;;5089487;28;19934;-64
2023/02/09 14:04:39;;;;;;;;;;;;;;;;;;5092290;28;19959;-64
2023/02/09 14:07:08;;;;;;;;;;;;;;;;;;5074650;28;19939;-64
2023/02/09 14:09:57;;;;;;;;;;;;;;;;;;5092546;28;19916;-64
2023/02/09 14:18:01;;;;;;;;;;;;;;;;;;5092920;28;20399;-63
2023/02/09 14:20:50;;;;;;;;;;;;;;;;;;5071429;28;19920;-64
2023/02/09 14:23:36;;;;;;;;;;;;;;;;;;5092557;28;19909;-64
2023/02/09 14:26:12;;;;;;;;;;;;;;;;;;5092959;28;19908;-64
2023/02/09 14:28:39;;;;;;;;;;;;;;;;;;5091348;28;19915;-65
2023/02/09 14:31:06;;;;;;;;;;;;;;;;;;5093200;28;19915;-65
2023/02/09 14:33:52;;;;;;;;;;;;;;;;;;5092214;28;19943;-65
2023/02/09 14:36:39;;;;;;;;;;;;;;;;;;5092631;28;19957;-65
2023/02/09 14:39:29;;;;;;;;;;;;;;;;;;5072399;28;19926;-64
2023/02/09 14:42:12;;;;;;;;;;;;;;;;;;5087012;28;19919;-65
2023/02/09 14:44:39;;;;;;;;;;;;;;;;;;5092649;28;19915;-64
2023/02/09 14:47:25;;;;;;;;;;;;;;;;;;5092403;28;19908;-62
2023/02/09 14:49:53;;;;;;;;;;;;;;;;;;5092607;28;20437;-62
2023/02/09 14:52:39;;;;;;;;;;;;;;;;;;5092327;28;20046;-62
2023/02/09 14:55:07;;;;;;;;;;;;;;;;;;5092442;28;19977;-62
2023/02/09 14:57:34;;;;;;;;;;;;;;;;;;5082864;28;19908;-62
2023/02/09 15:00:24;;;;;;;;;;;;;;;;;;5072094;28;20469;-57
2023/02/09 15:02:54;;;;;;;;;;;;;;;;;;5091886;28;19919;-55
2023/02/09 15:05:22;;;;;;;;;;;;;;;;;;5092196;28;19912;-57
2023/02/09 15:08:08;;;;;;;;;;;;;;;;;;5079743;28;19934;-58
2023/02/09 15:10:40;;;;;;;;;;;;;;;;;;5071991;28;19994;-59
2023/02/09 15:13:26;;;;;;;;;;;;;;;;;;5071218;28;19954;-59
2023/02/09 15:15:52;;;;;;;;;;;;;;;;;;5079284;28;19916;-59
2023/02/09 15:18:27;;;;;;;;;;;;;;;;;;5080811;28;19955;-57
2023/02/09 15:21:02;;;;;;;;;;;;;;;;;;5071832;28;19917;-58
2023/02/09 15:23:31;;;;;;;;;;;;;;;;;;5087430;28;20326;-58
2023/02/09 15:26:06;;;;;;;;;;;;;;;;;;5092202;28;20318;-57
2023/02/09 15:28:52;;;;;;;;;;;;;;;;;;5091823;28;19908;-59
2023/02/09 15:31:38;;;;;;;;;;;;;;;;;;5092002;28;19909;-59
2023/02/09 15:34:20;;;;;;;;;;;;;;;;;;5088432;28;19959;-59
2023/02/09 15:36:52;;;;;;;;;;;;;;;;;;5078254;28;19920;-54
2023/02/09 15:39:38;;;;;;;;;;;;;;;;;;5074926;28;19923;-57
2023/02/09 15:47:47;;;;;;;;;;;;;;;;;;5081484;28;19965;-57
2023/02/09 15:50:34;;;;;;;;;;;;;;;;;;5080752;28;19920;-54
2023/02/09 15:53:21;;;;;;;;;;;;;;;;;;5088616;28;19912;-58
2023/02/09 15:56:08;;;;;;;;;;;;;;;;;;5089260;28;19912;-57
2023/02/09 15:58:35;;;;;;;;;;;;;;;;;;5084688;28;20038;-55
2023/02/09 16:01:01;;;;;;;;;;;;;;;;;;5090099;28;19965;-54
2023/02/09 16:03:47;;;;;;;;;;;;;;;;;;5078309;28;20368;-54
2023/02/09 16:06:36;;;;;;;;;;;;;;;;;;5087132;28;19962;-56
2023/02/09 16:09:11;;;;;;;;;;;;;;;;;;5091692;28;19918;-57
2023/02/09 16:11:40;;;;;;;;;;;;;;;;;;5090656;28;20334;-57
2023/02/09 16:14:31;;;;;;;;;;;;;;;;;;5081084;28;19909;-58
2023/02/09 16:17:16;;;;;;;;;;;;;;;;;;5053717;28;20010;-57
2023/02/09 16:19:47;;;;;;;;;;;;;;;;;;5091071;28;19970;-60
2023/02/09 16:22:32;;;;;;;;;;;;;;;;;;5079732;28;19920;-53
2023/02/09 16:25:01;;;;;;;;;;;;;;;;;;5078594;28;20379;-56
2023/02/09 16:27:31;;;;;;;;;;;;;;;;;;5082834;28;20007;-55
2023/02/09 16:30:17;;;;;;;;;;;;;;;;;;5091865;28;19912;-53
2023/02/09 16:32:44;;;;;;;;;;;;;;;;;;5083565;28;19912;-58
2023/02/09 16:35:36;;;;;;;;;;;;;;;;;;5092159;28;19914;-53
2023/02/09 16:38:12;;;;;;;;;;;;;;;;;;5094419;28;19931;-57
2023/02/09 16:40:59;;;;;;;;;;;;;;;;;;5090186;28;19912;-53
2023/02/09 16:43:46;;;;;;;;;;;;;;;;;;5079618;28;20284;-55
2023/02/09 16:46:32;;;;;;;;;;;;;;;;;;5086221;28;19912;-53
2023/02/09 16:49:18;;;;;;;;;;;;;;;;;;5094494;28;19908;-53
2023/02/09 16:52:04;;;;;;;;;;;;;;;;;;5094653;28;19919;-54
2023/02/09 16:54:51;;;;;;;;;;;;;;;;;;5082834;28;19999;-58
2023/02/09 16:57:22;;;;;;;;;;;;;;;;;;5085658;28;19912;-57
2023/02/09 17:00:10;;;;;;;;;;;;;;;;;;5094015;28;20115;-54
2023/02/09 17:02:57;;;;;;;;;;;;;;;;;;5082918;28;19912;-57
2023/02/09 17:05:43;;;;;;;;;;;;;;;;;;5086434;28;19919;-56
2023/02/09 17:08:10;;;;;;;;;;;;;;;;;;5087480;28;19947;-57
2023/02/09 17:10:56;;;;;;;;;;;;;;;;;;5093352;28;19976;-53
2023/02/09 17:13:43;;;;;;;;;;;;;;;;;;5092278;28;20373;-54
2023/02/09 17:16:29;;;;;;;;;;;;;;;;;;5094025;28;20493;-55
2023/02/09 17:19:17;;;;;;;;;;;;;;;;;;5089468;28;19909;-56
2023/02/09 17:22:08;;;;;;;;;;;;;;;;;;5084706;28;20376;-54
2023/02/09 17:24:53;;;;;;;;;;;;;;;;;;5082148;28;20295;-59
2023/02/09 17:27:40;;;;;;;;;;;;;;;;;;5090789;28;19915;-56